Time;durP1;ratioP1;P1;durP2;ratioP2;P2;SDS_P1;SDS_P2;PMS_P1;PMS_P2;Temp;Humidity;BMP_temperature;BMP_pressure;BME280_temperature;BME280_humidity;BME280_pressure;Samples;Min_cycle;Max_cycle;Signal;HPM_P1;HPM_P2
2023/03/26 00:01:57;;;;;;;0.00;0.00;;;;;;;8.24;100.00;98964.25;4909947;29;20046;-75
2023/03/26 00:04:24;;;;;;;0.00;0.00;;;;;;;8.07;100.00;98929.25;4940455;29;20082;-74
2023/03/26 00:06:50;;;;;;;0.10;0.10;;;;;;;8.08;100.00;98930.09;4948149;29;20067;-75
2023/03/26 00:09:18;;;;;;;0.00;0.00;;;;;;;8.15;100.00;98934.09;4952162;28;20027;-76
2023/03/26 00:11:45;;;;;;;0.00;0.00;;;;;;;8.07;100.00;98915.66;4916025;29;20385;-75
2023/03/26 00:14:12;;;;;;;0.00;0.00;;;;;;;8.14;100.00;98927.00;4924078;29;20525;-75
2023/03/26 00:16:40;;;;;;;0.00;0.00;;;;;;;8.03;100.00;98909.97;4929663;29;20035;-74
2023/03/26 00:19:06;;;;;;;0.00;0.00;;;;;;;8.05;100.00;98912.41;4919136;29;20031;-75
2023/03/26 00:21:32;;;;;;;0.00;0.00;;;;;;;8.16;100.00;98915.84;4950449;29;20082;-74
2023/03/26 00:24:03;;;;;;;0.00;0.00;;;;;;;8.17;100.00;98910.09;4919529;28;20028;-75
2023/03/26 00:26:30;;;;;;;0.00;0.00;;;;;;;8.20;100.00;98920.41;4951931;29;20023;-74
2023/03/26 00:28:56;;;;;;;0.00;0.00;;;;;;;8.19;100.00;98913.38;4930226;29;20030;-75
2023/03/26 00:31:22;;;;;;;0.00;0.00;;;;;;;8.14;100.00;98910.69;4949262;28;20028;-74
2023/03/26 00:33:53;;;;;;;0.00;0.00;;;;;;;8.12;100.00;98906.59;4931141;28;20019;-75
2023/03/26 00:36:19;;;;;;;0.00;0.00;;;;;;;8.07;100.00;98899.31;4932387;29;20482;-74
2023/03/26 00:38:47;;;;;;;0.00;0.00;;;;;;;7.92;100.00;98891.28;4921592;29;20034;-76
2023/03/26 00:41:16;;;;;;;0.00;0.00;;;;;;;7.90;100.00;98907.09;4945243;28;20410;-75
2023/03/26 00:43:44;;;;;;;0.00;0.00;;;;;;;7.79;100.00;98899.00;4947785;28;20477;-75
2023/03/26 00:46:10;;;;;;;0.00;0.00;;;;;;;7.73;100.00;98893.91;4944867;28;20055;-75
2023/03/26 00:48:37;;;;;;;0.00;0.00;;;;;;;7.58;100.00;98883.94;4917040;29;20027;-76
2023/03/26 00:51:05;;;;;;;0.00;0.00;;;;;;;7.61;100.00;98888.84;4905154;28;20878;-75
2023/03/26 00:53:31;;;;;;;0.00;0.00;;;;;;;7.60;100.00;98888.00;4927411;29;20035;-75
2023/03/26 00:55:59;;;;;;;0.00;0.00;;;;;;;7.51;100.00;98870.66;4944295;28;20367;-75
2023/03/26 00:58:25;;;;;;;0.00;0.00;;;;;;;7.54;100.00;98875.53;4934456;29;20110;-74
2023/03/26 01:00:56;;;;;;;0.00;0.00;;;;;;;7.55;100.00;98876.34;4929685;29;20027;-75
2023/03/26 01:03:23;;;;;;;0.00;0.00;;;;;;;7.40;100.00;98859.03;4935847;29;20039;-75
2023/03/26 01:06:03;;;;;;;0.00;0.00;;;;;;;7.43;100.00;98871.28;4950720;28;20045;-76
2023/03/26 01:08:40;;;;;;;0.00;0.00;;;;;;;7.34;100.00;98871.88;4948743;28;20561;-76
2023/03/26 01:11:14;;;;;;;0.00;0.00;;;;;;;7.19;100.00;98846.72;4944663;29;20078;-75
2023/03/26 01:13:54;;;;;;;0.00;0.00;;;;;;;7.15;100.00;98850.00;4943263;28;20023;-76
2023/03/26 01:16:32;;;;;;;0.00;0.00;;;;;;;7.17;100.00;98852.44;4942572;29;20031;-75
2023/03/26 01:18:59;;;;;;;0.00;0.00;;;;;;;7.11;100.00;98843.50;4930181;29;20381;-75
2023/03/26 01:21:28;;;;;;;0.00;0.00;;;;;;;7.12;100.00;98842.38;4950258;28;20446;-75
2023/03/26 01:24:03;;;;;;;0.00;0.00;;;;;;;7.11;100.00;98845.38;4930022;28;20023;-77
2023/03/26 01:26:51;;;;;;;0.00;0.00;;;;;;;7.07;100.00;98839.69;4937038;29;20046;-75
2023/03/26 01:29:47;;;;;;;0.00;0.00;;;;;;;7.02;100.00;98837.00;4939747;28;20034;-74
2023/03/26 01:32:54;;;;;;;0.00;0.00;;;;;;;7.02;100.00;98826.13;4949151;28;20023;-77
2023/03/26 01:35:23;;;;;;;0.00;0.00;;;;;;;7.01;100.00;98813.66;4947813;28;20493;-76
2023/03/26 01:38:11;;;;;;;0.00;0.00;;;;;;;7.07;100.00;98815.25;4936410;29;20031;-76
2023/03/26 01:40:48;;;;;;;0.10;0.10;;;;;;;7.19;100.00;98814.09;4948524;28;20462;-74
2023/03/26 01:43:28;;;;;;;0.10;0.10;;;;;;;7.26;100.00;98798.25;4943170;29;20030;-74
2023/03/26 01:45:59;;;;;;;0.00;0.00;;;;;;;7.28;100.00;98793.34;4948400;28;20039;-74
2023/03/26 01:48:36;;;;;;;0.00;0.00;;;;;;;7.08;100.00;98799.72;4949303;29;20034;-74
2023/03/26 01:51:04;;;;;;;0.00;0.00;;;;;;;6.93;100.00;98803.38;4928286;29;20485;-75
2023/03/26 01:53:30;;;;;;;0.00;0.00;;;;;;;6.73;100.00;98810.56;4928653;29;20032;-74
2023/03/26 01:56:17;;;;;;;0.10;0.10;;;;;;;6.51;100.00;98810.13;4946103;29;20027;-73
2023/03/26 01:58:58;;;;;;;0.00;0.00;;;;;;;6.24;100.00;98801.25;4954169;29;20023;-75
2023/03/26 02:01:31;;;;;;;0.00;0.00;;;;;;;6.00;100.00;98784.81;4929206;28;20078;-74
2023/03/26 02:04:52;;;;;;;0.00;0.00;;;;;;;5.98;100.00;98791.59;4933472;28;20020;-74
2023/03/26 02:07:37;;;;;;;;;;;;;;;;;;;;;
2023/03/26 02:10:13;;;;;;;0.00;0.00;;;;;;;5.81;100.00;98786.44;4940846;29;20016;-75
2023/03/26 02:12:40;;;;;;;0.00;0.00;;;;;;;5.58;100.00;98770.47;4934005;29;20023;-74
2023/03/26 02:15:11;;;;;;;0.00;0.00;;;;;;;5.50;100.00;98762.06;4936254;28;20035;-75
2023/03/26 02:17:39;;;;;;;0.00;0.00;;;;;;;5.53;100.00;98777.78;4929938;28;20020;-74
2023/03/26 02:20:14;;;;;;;0.00;0.00;;;;;;;5.36;100.00;98754.50;4950263;28;20019;-74
2023/03/26 02:22:44;;;;;;;0.00;0.00;;;;;;;5.44;100.00;98776.72;4939964;29;20086;-74
2023/03/26 02:25:19;;;;;;;0.00;0.00;;;;;;;5.40;100.00;98766.44;4951644;29;20054;-75
2023/03/26 02:27:49;;;;;;;0.00;0.00;;;;;;;5.31;100.00;98749.06;4928792;29;20039;-74
2023/03/26 02:30:24;;;;;;;0.00;0.00;;;;;;;5.34;100.00;98745.00;4950644;28;20039;-74
2023/03/26 02:32:52;;;;;;;0.00;0.00;;;;;;;5.23;100.00;98733.38;4945868;28;20023;-73
2023/03/26 02:35:22;;;;;;;0.00;0.00;;;;;;;5.26;100.00;98740.97;4935469;28;20031;-74
2023/03/26 02:38:32;;;;;;;0.00;0.00;;;;;;;5.27;100.00;98741.75;4928630;28;20034;-74
2023/03/26 02:40:58;;;;;;;0.00;0.00;;;;;;;5.20;100.00;98736.63;4948944;28;20114;-73
2023/03/26 02:43:24;;;;;;;0.00;0.00;;;;;;;5.13;100.00;98730.69;4949580;28;20023;-74
2023/03/26 02:45:52;;;;;;;0.00;0.00;;;;;;;5.17;100.00;98735.28;4932655;28;20074;-74
2023/03/26 02:48:20;;;;;;;0.00;0.00;;;;;;;5.20;100.00;98739.34;4935562;29;20030;-73
2023/03/26 02:50:52;;;;;;;0.00;0.00;;;;;;;5.22;100.00;98743.38;4946569;28;20069;-76
2023/03/26 02:53:36;;;;;;;0.00;0.00;;;;;;;5.15;100.00;98725.78;4962802;28;20586;-76
2023/03/26 02:56:02;;;;;;;0.10;0.10;;;;;;;5.22;100.00;98729.03;4924639;29;20034;-73
2023/03/26 02:58:28;;;;;;;0.00;0.00;;;;;;;5.17;100.00;98724.44;4914253;28;20057;-73
2023/03/26 03:00:57;;;;;;;0.10;0.10;;;;;;;5.24;100.00;98734.97;4941494;29;20106;-73
2023/03/26 03:03:24;;;;;;;0.00;0.00;;;;;;;5.26;100.00;98735.53;4941568;29;20046;-74
2023/03/26 03:05:56;;;;;;;0.10;0.10;;;;;;;5.20;100.00;98717.66;4956592;28;20023;-74
2023/03/26 03:08:25;;;;;;;0.00;0.00;;;;;;;5.33;100.00;98727.94;4913618;28;20028;-72
2023/03/26 03:11:08;;;;;;;0.00;0.00;;;;;;;5.27;100.00;98711.94;4941127;29;20094;-72
2023/03/26 03:13:33;;;;;;;0.00;0.00;;;;;;;5.29;100.00;98718.72;4943433;28;20492;-73
2023/03/26 03:15:59;;;;;;;0.00;0.00;;;;;;;5.25;100.00;98709.50;4940002;29;20031;-73
2023/03/26 03:18:25;;;;;;;0.00;0.00;;;;;;;5.35;100.00;98720.34;4951018;28;20055;-73
2023/03/26 03:20:50;;;;;;;0.00;0.00;;;;;;;5.31;100.00;98699.47;4941766;28;20054;-73
2023/03/26 03:23:16;;;;;;;0.00;0.00;;;;;;;5.34;100.00;98699.72;4949511;28;20110;-73
2023/03/26 03:25:46;;;;;;;0.00;0.00;;;;;;;5.46;100.00;98715.72;4926524;29;20036;-73
2023/03/26 03:28:12;;;;;;;0.00;0.00;;;;;;;5.51;100.00;98717.63;4950357;29;20042;-74
2023/03/26 03:30:38;;;;;;;0.00;0.00;;;;;;;5.52;100.00;98721.94;4926100;28;20046;-75
2023/03/26 03:33:04;;;;;;;0.00;0.00;;;;;;;5.49;100.00;98703.50;4913883;29;20019;-74
2023/03/26 03:35:31;;;;;;;0.00;0.00;;;;;;;5.57;100.00;98721.94;4917167;29;20028;-74
2023/03/26 03:38:04;;;;;;;0.00;0.00;;;;;;;5.55;100.00;98719.50;4931714;29;20023;-73
2023/03/26 03:40:32;;;;;;;0.10;0.10;;;;;;;5.58;100.00;98718.16;4951363;28;20027;-73
2023/03/26 03:42:57;;;;;;;0.00;0.00;;;;;;;5.48;100.00;98702.69;4955626;28;20273;-73
2023/03/26 03:45:25;;;;;;;0.00;0.00;;;;;;;5.52;100.00;98708.38;4930606;29;20036;-74
2023/03/26 03:47:52;;;;;;;0.00;0.00;;;;;;;5.56;100.00;98712.16;4912444;29;20078;-73
2023/03/26 03:50:18;;;;;;;0.00;0.00;;;;;;;5.59;100.00;98714.31;4924346;29;20114;-73
2023/03/26 03:52:43;;;;;;;0.00;0.00;;;;;;;5.66;100.00;98720.28;4940374;28;20122;-74
2023/03/26 03:55:09;;;;;;;0.10;0.10;;;;;;;5.67;100.00;98707.56;4933857;29;20033;-73
2023/03/26 03:57:35;;;;;;;0.00;0.00;;;;;;;5.69;100.00;98708.88;4950730;28;20086;-75
2023/03/26 04:00:03;;;;;;;0.00;0.00;;;;;;;5.77;100.00;98719.16;4930668;29;20054;-74
2023/03/26 04:02:33;;;;;;;0.00;0.00;;;;;;;5.72;100.00;98713.78;4951131;29;20034;-72
2023/03/26 04:05:02;;;;;;;0.10;0.10;;;;;;;5.84;100.00;98724.31;4928314;29;20339;-74
2023/03/26 04:07:32;;;;;;;0.00;0.00;;;;;;;5.82;100.00;98717.53;4949935;29;20035;-74
2023/03/26 04:10:01;;;;;;;0.10;0.10;;;;;;;5.85;100.00;98716.97;4925714;28;20067;-73
2023/03/26 04:12:34;;;;;;;0.00;0.00;;;;;;;5.77;100.00;98694.75;4932678;29;20043;-74
2023/03/26 04:15:00;;;;;;;0.00;0.00;;;;;;;5.94;100.00;98715.31;4928717;29;20493;-73
2023/03/26 04:17:33;;;;;;;0.00;0.00;;;;;;;5.97;100.00;98703.94;4910799;29;20023;-74
2023/03/26 04:20:12;;;;;;;0.00;0.00;;;;;;;6.00;100.00;98713.41;4926917;29;20038;-74
2023/03/26 04:22:41;;;;;;;0.00;0.00;;;;;;;6.07;100.00;98703.88;4906132;29;20114;-73
2023/03/26 04:25:14;;;;;;;0.00;0.00;;;;;;;6.14;100.00;98710.94;4948146;28;20027;-73
2023/03/26 04:27:42;;;;;;;0.00;0.00;;;;;;;6.19;100.00;98708.19;4932956;28;20057;-74
2023/03/26 04:30:17;;;;;;;0.00;0.00;;;;;;;6.18;100.00;98709.28;4940504;28;20024;-74
2023/03/26 04:32:43;;;;;;;0.00;0.00;;;;;;;6.22;100.00;98704.91;4942829;28;20020;-74
2023/03/26 04:35:15;;;;;;;0.00;0.00;;;;;;;6.25;100.00;98702.44;4933938;29;20023;-73
2023/03/26 04:37:44;;;;;;;0.00;0.00;;;;;;;6.25;100.00;98688.06;4926264;29;20038;-74
2023/03/26 04:40:17;;;;;;;0.00;0.00;;;;;;;6.31;100.00;98703.25;4942515;28;20031;-74
2023/03/26 04:42:48;;;;;;;0.00;0.00;;;;;;;6.32;100.00;98699.41;4944250;28;20058;-74
2023/03/26 04:45:16;;;;;;;0.00;0.00;;;;;;;6.35;100.00;98711.63;4924581;29;20130;-74
2023/03/26 04:47:49;;;;;;;0.00;0.00;;;;;;;6.23;100.00;98717.38;4924960;29;20051;-73
2023/03/26 04:50:15;;;;;;;0.10;0.10;;;;;;;6.11;100.00;98709.56;4956100;28;20081;-74
2023/03/26 04:52:41;;;;;;;0.00;0.00;;;;;;;6.10;100.00;98706.06;4945152;29;20501;-74
2023/03/26 04:55:26;;;;;;;0.00;0.00;;;;;;;6.11;100.00;98704.16;4935987;29;20032;-75
2023/03/26 04:57:58;;;;;;;0.00;0.00;;;;;;;6.22;100.00;98716.59;4916005;29;20085;-74
2023/03/26 05:00:27;;;;;;;0.00;0.00;;;;;;;6.09;100.00;98701.72;4938415;29;20054;-74
2023/03/26 05:02:54;;;;;;;0.00;0.00;;;;;;;6.10;100.00;98708.78;4912372;29;20035;-73
2023/03/26 05:05:20;;;;;;;0.00;0.00;;;;;;;6.08;100.00;98716.38;4948130;28;20065;-74
2023/03/26 05:07:46;;;;;;;0.00;0.00;;;;;;;5.98;100.00;98710.97;4935739;29;20067;-73
2023/03/26 05:10:16;;;;;;;0.00;0.00;;;;;;;5.91;100.00;98707.72;4930821;28;20110;-75
2023/03/26 05:12:41;;;;;;;0.00;0.00;;;;;;;5.82;100.00;98709.41;4917483;29;20023;-75
2023/03/26 05:15:23;;;;;;;0.10;0.10;;;;;;;5.80;100.00;98714.25;4922879;28;20028;-74
2023/03/26 05:17:50;;;;;;;0.10;0.10;;;;;;;5.76;100.00;98706.69;4948994;29;20085;-75
2023/03/26 05:20:19;;;;;;;0.00;0.00;;;;;;;5.91;100.00;98724.00;4943966;28;20082;-75
2023/03/26 05:22:49;;;;;;;0.00;0.00;;;;;;;5.85;100.00;98716.97;4913416;29;20027;-74
2023/03/26 05:25:16;;;;;;;0.10;0.10;;;;;;;5.85;100.00;98719.69;4945984;28;20054;-74
2023/03/26 05:27:44;;;;;;;0.00;0.00;;;;;;;5.95;100.00;98725.88;4930741;29;20058;-74
2023/03/26 05:30:14;;;;;;;0.00;0.00;;;;;;;5.96;100.00;98729.44;4947825;28;20023;-73
2023/03/26 05:32:48;;;;;;;0.00;0.00;;;;;;;6.04;100.00;98736.19;4941895;28;20019;-78
2023/03/26 05:35:17;;;;;;;0.00;0.00;;;;;;;6.06;100.00;98736.72;4938737;29;20110;-75
2023/03/26 05:37:44;;;;;;;0.00;0.00;;;;;;;6.07;100.00;98739.16;4928895;29;20054;-75
2023/03/26 05:40:12;;;;;;;0.00;0.00;;;;;;;6.13;100.00;98750.00;4939654;29;20033;-74
2023/03/26 05:42:39;;;;;;;0.00;0.00;;;;;;;6.01;100.00;98732.13;4924813;29;20587;-75
2023/03/26 05:45:06;;;;;;;0.00;0.00;;;;;;;6.15;100.00;98751.34;4922757;29;20033;-75
2023/03/26 05:47:31;;;;;;;0.00;0.00;;;;;;;6.17;100.00;98751.88;4945047;29;20055;-74
2023/03/26 05:49:57;;;;;;;0.00;0.00;;;;;;;6.17;100.00;98745.66;4943724;28;20027;-74
2023/03/26 05:52:23;;;;;;;0.00;0.00;;;;;;;6.26;100.00;98761.09;4901295;29;20035;-74
2023/03/26 05:54:49;;;;;;;0.00;0.00;;;;;;;6.30;100.00;98766.75;4902799;29;20036;-74
2023/03/26 05:57:14;;;;;;;0.00;0.00;;;;;;;6.33;100.00;98758.06;4956532;29;20043;-74
2023/03/26 05:59:40;;;;;;;0.10;0.10;;;;;;;6.38;100.00;98757.22;4937329;29;20019;-74
2023/03/26 06:02:06;;;;;;;0.00;0.00;;;;;;;6.39;100.00;98762.38;4915793;29;20039;-75
2023/03/26 06:04:32;;;;;;;0.00;0.00;;;;;;;6.43;100.00;98776.22;4901223;28;20058;-75
2023/03/26 06:06:57;;;;;;;0.00;0.00;;;;;;;6.32;100.00;98774.63;4918130;29;20545;-74
2023/03/26 06:09:23;;;;;;;0.00;0.00;;;;;;;6.20;100.00;98764.09;4932892;29;20047;-74
2023/03/26 06:11:49;;;;;;;0.00;0.00;;;;;;;6.24;100.00;98768.69;4912140;29;20031;-74
2023/03/26 06:14:14;;;;;;;0.00;0.00;;;;;;;6.25;100.00;98774.91;4948365;28;20047;-74
2023/03/26 06:16:40;;;;;;;0.00;0.00;;;;;;;6.21;100.00;98774.66;4942076;28;20058;-74
2023/03/26 06:19:05;;;;;;;0.00;0.00;;;;;;;6.22;100.00;98781.72;4913321;29;20102;-75
2023/03/26 06:21:31;;;;;;;0.00;0.00;;;;;;;6.29;100.00;98786.84;4924718;29;20040;-75
2023/03/26 06:23:57;;;;;;;0.00;0.00;;;;;;;6.26;100.00;98771.94;4943339;28;20541;-74
2023/03/26 06:26:22;;;;;;;0.00;0.00;;;;;;;6.31;100.00;98776.53;4919923;29;20122;-75
2023/03/26 06:28:48;;;;;;;0.00;0.00;;;;;;;6.29;100.00;98776.00;4929763;29;20390;-75
2023/03/26 06:31:16;;;;;;;0.00;0.00;;;;;;;6.37;100.00;98782.75;4949557;28;20441;-75
2023/03/26 06:33:41;;;;;;;0.00;0.00;;;;;;;6.42;100.00;98783.53;4913952;29;20043;-75
2023/03/26 06:36:07;;;;;;;0.00;0.00;;;;;;;6.51;100.00;98799.25;4931861;29;20126;-74
2023/03/26 06:38:32;;;;;;;0.00;0.00;;;;;;;6.53;100.00;98807.94;4924365;29;20398;-74
2023/03/26 06:41:05;;;;;;;0.00;0.00;;;;;;;6.53;100.00;98802.53;4942016;28;20031;-75
2023/03/26 06:43:35;;;;;;;0.00;0.00;;;;;;;6.49;100.00;98796.00;4933686;29;20047;-74
2023/03/26 06:46:01;;;;;;;0.00;0.00;;;;;;;6.57;100.00;98803.56;4911256;29;20939;-74
2023/03/26 06:48:27;;;;;;;0.00;0.00;;;;;;;6.61;100.00;98810.06;4952426;28;20500;-74
2023/03/26 06:50:55;;;;;;;0.00;0.00;;;;;;;6.60;100.00;98811.16;4928045;28;20035;-74
2023/03/26 06:53:21;;;;;;;0.00;0.00;;;;;;;6.62;100.00;98811.69;4928010;29;20086;-75
2023/03/26 06:55:46;;;;;;;0.00;0.00;;;;;;;6.67;100.00;98819.81;4945677;28;20131;-76
2023/03/26 06:58:15;;;;;;;0.00;0.00;;;;;;;6.68;100.00;98826.88;4927878;29;20035;-75
2023/03/26 07:01:01;;;;;;;0.00;0.00;;;;;;;6.64;100.00;98814.94;4934039;29;20043;-74
2023/03/26 07:03:27;;;;;;;0.00;0.00;;;;;;;6.72;100.00;98827.16;4943519;28;20035;-74
2023/03/26 07:05:55;;;;;;;0.00;0.00;;;;;;;6.76;100.00;98837.16;4931010;29;20034;-74
2023/03/26 07:08:20;;;;;;;0.00;0.00;;;;;;;6.82;100.00;98844.19;4936492;28;20035;-78
2023/03/26 07:10:46;;;;;;;0.00;0.00;;;;;;;6.81;100.00;98842.56;4909206;29;20114;-77
2023/03/26 07:13:11;;;;;;;0.00;0.00;;;;;;;6.82;100.00;98846.91;4952608;28;20038;-78
2023/03/26 07:15:49;;;;;;;;;;;;;;;;;;;;;
2023/03/26 07:18:15;;;;;;;0.00;0.00;;;;;;;6.94;100.00;98860.16;4918244;29;20053;-75
2023/03/26 07:20:44;;;;;;;0.00;0.00;;;;;;;6.95;100.00;98852.81;4950541;28;20735;-76
2023/03/26 08:43:20;;;;;;;;;;;;;;;;;;;;;
2023/03/26 08:46:08;;;;;;;0.00;0.00;;;;;;;10.02;98.71;98993.47;4853779;29;20045;-75
2023/03/26 08:48:45;;;;;;;0.00;0.00;;;;;;;10.24;98.24;99012.75;4872373;29;20036;-75
2023/03/26 08:51:31;;;;;;;0.00;0.00;;;;;;;10.39;98.31;99025.38;4867851;29;20707;-75
2023/03/26 08:54:24;;;;;;;0.00;0.00;;;;;;;10.53;96.90;99028.16;4870934;29;20025;-74
2023/03/26 08:57:05;;;;;;;0.00;0.00;;;;;;;10.64;96.95;99040.56;4872168;29;20549;-74
2023/03/26 08:59:58;;;;;;;0.00;0.00;;;;;;;10.74;96.50;99042.28;4849152;29;20061;-75
2023/03/26 09:02:42;;;;;;;0.00;0.00;;;;;;;10.83;96.51;99039.66;4855339;29;20029;-75
2023/03/26 09:05:27;;;;;;;;;;;;;;;10.93;95.63;99044.94;4881211;29;20574;-74
2023/03/26 09:08:21;;;;;;;0.00;0.00;;;;;;;10.99;95.63;99053.88;4855423;29;19916;-74
2023/03/26 09:11:11;;;;;;;0.00;0.00;;;;;;;11.06;94.74;99042.53;4872533;29;20048;-74
2023/03/26 09:13:45;;;;;;;0.10;0.10;;;;;;;11.26;94.27;99064.03;4850547;29;20602;-75
2023/03/26 09:16:23;;;;;;;;;;;;;;;11.32;93.62;99073.75;4864468;29;20104;-74
2023/03/26 09:22:50;;;;;;;0.00;0.00;;;;;;;11.63;92.25;99078.59;4856174;29;20048;-74
2023/03/26 09:25:42;;;;;;;;;;;;;;;;;;;;;
2023/03/26 09:28:43;;;;;;;0.00;0.00;;;;;;;12.10;89.21;99091.34;4862232;29;20032;-76
2023/03/26 09:31:17;;;;;;;0.00;0.00;;;;;;;12.11;88.68;99095.72;4852666;29;20127;-75
2023/03/26 09:33:51;;;;;;;;;;;;;;;12.22;87.40;99105.28;4855836;29;20124;-74
2023/03/26 09:37:01;;;;;;;0.00;0.00;;;;;;;12.55;86.53;99096.84;4844871;29;20062;-75
2023/03/26 09:39:35;;;;;;;0.00;0.00;;;;;;;12.85;84.36;99099.94;4868673;29;20029;-75
2023/03/26 09:42:12;;;;;;;;;;;;;;;13.28;84.36;99124.09;4867384;29;20060;-76
2023/03/26 09:44:44;;;;;;;0.00;0.00;;;;;;;14.52;84.10;99115.00;4872077;29;19931;-75
2023/03/26 09:47:55;;;;;;;;;;;;;;;;;;;;;
2023/03/26 09:54:16;;;;;;;;;;;;;;;;;;;;;
2023/03/26 09:56:59;;;;;;;0.00;0.00;;;;;;;18.97;63.98;99157.22;4835285;29;20041;-75
2023/03/26 10:09:28;;;;;;;0.00;0.00;;;;;;;17.32;64.14;99187.97;4856207;29;20434;-76
2023/03/26 10:18:36;;;;;;;0.00;0.00;;;;;;;15.21;65.76;99193.16;4779814;30;20104;-75
2023/03/26 10:32:36;;;;;;;;;;;;;;;;;;;;;
2023/03/26 10:35:36;;;;;;;0.00;0.00;;;;;;;14.92;62.41;99238.69;4670139;30;20056;-75
2023/03/26 10:38:34;;;;;;;0.00;0.00;;;;;;;14.60;63.43;99246.22;4783533;29;20139;-76
2023/03/26 10:42:46;;;;;;;;;;;;;;;;;;;;;
2023/03/26 10:48:41;;;;;;;;;;;;;;;;;;;;;
2023/03/26 10:52:16;;;;;;;;;;;;;;;;;;;;;
2023/03/26 11:02:00;;;;;;;;;;;;;;;;;;;;;
2023/03/26 11:08:50;;;;;;;;;;;;;;;;;;;;;
2023/03/26 11:11:43;;;;;;;;;;;;;;;;;;;;;
2023/03/26 11:14:39;;;;;;;0.00;0.00;;;;;;;13.57;63.82;99323.28;4755631;29;20043;-74
2023/03/26 11:17:54;;;;;;;0.00;0.00;;;;;;;13.36;65.35;99334.78;4799626;29;20073;-74
2023/03/26 11:20:45;;;;;;;;;;;;;;;;;;;;;
2023/03/26 11:24:27;;;;;;;;;;;;;;;;;;;;;
2023/03/26 11:27:44;;;;;;;0.00;0.00;;;;;;;14.11;64.61;99343.31;4795220;29;20050;-75
2023/03/26 11:41:48;;;;;;;0.00;0.00;;;;;;;18.64;55.19;99356.78;4837011;29;20396;-76
2023/03/26 11:52:07;;;;;;;;;;;;;;;;;;;;;
2023/03/26 12:14:25;;;;;;;0.00;0.00;;;;;;;18.49;47.48;99435.78;4722424;30;20056;-75
2023/03/26 12:17:35;;;;;;;0.00;0.00;;;;;;;18.89;46.12;99449.00;4711431;30;20045;-74
2023/03/26 12:20:21;;;;;;;0.00;0.00;;;;;;;18.12;46.77;99427.38;4772459;30;20047;-75
2023/03/26 12:22:47;;;;;;;0.00;0.00;;;;;;;18.09;48.35;99436.38;4794030;29;20046;-75
2023/03/26 12:25:21;;;;;;;0.00;0.00;;;;;;;19.40;46.61;99456.13;4841265;29;20042;-75
2023/03/26 12:27:56;;;;;;;0.00;0.00;;;;;;;21.67;43.54;99462.09;4844276;29;20037;-75
2023/03/26 12:30:29;;;;;;;0.00;0.00;;;;;;;22.01;41.87;99470.75;4845426;29;20041;-75
2023/03/26 12:33:20;;;;;;;0.00;0.00;;;;;;;21.31;42.68;99480.75;4837224;29;20025;-76
2023/03/26 12:35:49;;;;;;;0.00;0.00;;;;;;;20.46;43.11;99472.63;4859229;29;20069;-75
2023/03/26 12:38:14;;;;;;;0.00;0.00;;;;;;;19.68;43.52;99495.00;4842915;29;20112;-76
2023/03/26 12:40:41;;;;;;;0.00;0.00;;;;;;;18.63;44.73;99491.66;4847716;29;20108;-78
2023/03/26 12:43:21;;;;;;;0.00;0.00;;;;;;;17.57;46.51;99490.13;4841696;29;20033;-75
2023/03/26 12:45:55;;;;;;;0.00;0.00;;;;;;;17.04;48.69;99503.41;4855703;29;20409;-75
2023/03/26 12:48:24;;;;;;;0.00;0.00;;;;;;;16.62;50.04;99514.25;4871970;29;20557;-76
2023/03/26 12:51:05;;;;;;;0.00;0.00;;;;;;;16.22;51.21;99532.69;4837735;29;20041;-76
2023/03/26 12:53:45;;;;;;;0.00;0.00;;;;;;;15.93;52.55;99535.25;4842182;29;20377;-76
2023/03/26 12:56:20;;;;;;;0.00;0.00;;;;;;;16.26;52.74;99537.53;4857167;29;20033;-75
2023/03/26 12:58:53;;;;;;;0.00;0.00;;;;;;;17.88;50.59;99539.50;4852248;29;20112;-79
2023/03/26 13:01:35;;;;;;;0.00;0.00;;;;;;;19.41;47.68;99549.25;4843116;29;20044;-77
2023/03/26 13:04:16;;;;;;;0.00;0.00;;;;;;;22.07;43.04;99542.47;4856113;29;20033;-86
2023/03/26 13:06:55;;;;;;;0.00;0.00;;;;;;;25.18;37.99;99559.94;4857607;29;20029;-85
2023/03/26 13:09:54;;;;;;;0.00;0.00;;;;;;;25.98;35.62;99571.69;4857638;29;20070;-83
2023/03/26 13:13:00;;;;;;;0.00;0.00;;;;;;;21.61;37.85;99573.66;4856536;29;20046;-87
2023/03/26 13:15:34;;;;;;;0.00;0.00;;;;;;;18.63;43.33;99569.19;4763818;30;20082;-85
2023/03/26 13:18:31;;;;;;;0.00;0.00;;;;;;;16.58;48.51;99581.16;4844686;29;20034;-80
2023/03/26 13:21:12;;;;;;;0.00;0.00;;;;;;;14.77;53.32;99583.97;4828890;29;20037;-79
2023/03/26 13:23:56;;;;;;;0.00;0.00;;;;;;;13.82;56.85;99598.53;4852687;29;20036;-79
2023/03/26 13:26:36;;;;;;;0.00;0.00;;;;;;;13.25;59.88;99596.91;4858521;29;20555;-78
2023/03/26 13:40:37;;;;;;;0.00;0.00;;;;;;;14.24;60.14;99633.06;4790498;29;20031;-79
2023/03/26 13:44:14;;;;;;;0.00;0.00;;;;;;;14.41;60.24;99637.91;4847833;29;20055;-79
2023/03/26 13:53:34;;;;;;;;;;;;;;;;;;;;;
2023/03/26 13:56:28;;;;;;;0.00;0.00;;;;;;;14.46;58.34;99651.53;4828439;29;20489;-78
2023/03/26 14:04:10;;;;;;;0.00;0.00;;;;;;;15.06;56.72;99701.88;4681560;30;21486;-77
2023/03/26 14:10:37;;;;;;;;;;;;;;;;;;;;;
2023/03/26 14:13:12;;;;;;;;;;;;;;;22.89;39.00;99743.16;4685453;30;20055;-81
2023/03/26 14:16:33;;;;;;;0.00;0.00;;;;;;;23.09;37.96;99749.56;4776675;29;20372;-80
2023/03/26 14:19:22;;;;;;;0.00;0.00;;;;;;;24.04;34.80;99750.16;4804274;29;20034;-78
2023/03/26 14:22:32;;;;;;;0.00;0.00;;;;;;;25.93;33.53;99755.75;4812198;29;20071;-78
2023/03/26 14:25:59;;;;;;;0.00;0.00;;;;;;;27.52;32.14;99762.28;4802131;29;20044;-78
2023/03/26 14:32:59;;;;;;;;;;;;;;;;;;;;;
2023/03/26 14:43:09;;;;;;;;;;;;;;;;;;;;;
2023/03/26 15:06:58;;;;;;;0.00;0.00;;;;;;;14.28;51.64;99831.22;4730230;30;20043;-79
2023/03/26 15:20:31;;;;;;;;;;;;;;;;;;;;;
2023/03/26 15:23:15;;;;;;;0.00;0.00;;;;;;;27.32;35.24;99902.94;4738278;30;20039;-77
2023/03/26 15:30:13;;;;;;;0.00;0.00;;;;;;;32.41;24.56;99912.53;4748389;30;20273;-77
2023/03/26 15:33:23;;;;;;;0.00;0.00;;;;;;;29.55;26.06;99895.91;4736777;30;20133;-78
2023/03/26 15:36:14;;;;;;;0.00;0.00;;;;;;;25.20;29.30;99907.25;4729321;30;20063;-81
2023/03/26 15:39:03;;;;;;;0.00;0.00;;;;;;;22.97;33.14;99911.41;4788708;29;20055;-80
2023/03/26 15:42:05;;;;;;;0.00;0.00;;;;;;;22.27;33.91;99918.41;4839783;29;20037;-80
2023/03/26 15:44:49;;;;;;;0.00;0.00;;;;;;;20.90;35.11;99914.44;4832693;29;20488;-79
2023/03/26 15:47:33;;;;;;;0.05;0.05;;;;;;;19.26;38.00;99908.25;4851687;29;20136;-79
2023/03/26 15:50:18;;;;;;;0.00;0.00;;;;;;;18.05;40.81;99930.63;4846151;29;20082;-78
2023/03/26 15:52:58;;;;;;;0.00;0.00;;;;;;;17.42;42.50;99929.00;4846345;29;20439;-77
2023/03/26 15:55:35;;;;;;;0.00;0.00;;;;;;;17.67;43.00;99945.09;4861044;29;20025;-77
2023/03/26 15:58:22;;;;;;;0.00;0.00;;;;;;;18.53;39.99;99948.06;4853904;29;20478;-79
2023/03/26 16:01:02;;;;;;;0.00;0.00;;;;;;;18.27;41.20;99948.97;4875763;29;20029;-77
2023/03/26 16:03:40;;;;;;;0.00;0.00;;;;;;;18.79;40.28;99953.47;4857006;29;20424;-76
2023/03/26 16:06:08;;;;;;;0.00;0.00;;;;;;;19.73;39.09;99979.34;4856399;29;20079;-77
2023/03/26 16:09:04;;;;;;;0.00;0.00;;;;;;;19.02;39.20;99985.34;4852407;29;20029;-76
2023/03/26 16:11:52;;;;;;;0.00;0.00;;;;;;;17.22;41.85;99977.41;4850554;29;20541;-77
2023/03/26 16:15:22;;;;;;;;;;;;;;;;;;;;;
2023/03/26 16:18:24;;;;;;;;;;;;;;;;;;;;;
2023/03/26 16:21:33;;;;;;;;;;;;;;;;;;;;;
2023/03/26 16:24:15;;;;;;;0.00;0.00;;;;;;;13.35;50.69;99986.66;4811727;29;20062;-77
2023/03/26 16:27:14;;;;;;;0.00;0.00;;;;;;;12.92;51.86;99987.44;4798994;29;20040;-79
2023/03/26 16:30:57;;;;;;;0.00;0.00;;;;;;;12.64;52.46;100013.00;4799638;29;20045;-78
2023/03/26 16:40:50;;;;;;;0.00;0.00;;;;;;;13.96;50.88;100028.13;4743979;30;20074;-78
2023/03/26 16:43:44;;;;;;;;;;;;;;;;;;;;;
2023/03/26 16:47:22;;;;;;;0.00;0.00;;;;;;;13.93;50.73;100064.44;4745813;30;20163;-79
2023/03/26 16:53:50;;;;;;;0.00;0.00;;;;;;;12.58;53.08;100072.56;4753119;30;20130;-75
2023/03/26 16:56:23;;;;;;;0.00;0.00;;;;;;;12.10;54.16;100088.84;4800060;29;20035;-76
2023/03/26 16:59:17;;;;;;;;;;;;;;;;;;;;;
2023/03/26 17:02:03;;;;;;;0.00;0.00;;;;;;;11.32;56.81;100097.41;4867989;29;20017;-76
2023/03/26 17:04:34;;;;;;;0.10;0.10;;;;;;;11.06;57.53;100101.34;4867673;29;20032;-75
2023/03/26 17:07:40;;;;;;;0.03;0.03;;;;;;;10.89;59.31;100121.59;4863473;29;20020;-77
2023/03/26 17:10:24;;;;;;;0.00;0.00;;;;;;;10.65;58.76;100122.16;4868051;29;20043;-76
2023/03/26 17:12:58;;;;;;;0.00;0.00;;;;;;;10.73;58.79;100136.38;4856322;29;20177;-78